Time;durP1;ratioP1;P1;durP2;ratioP2;P2;SDS_P1;SDS_P2;PMS_P1;PMS_P2;Temp;Humidity;BMP_temperature;BMP_pressure;BME280_temperature;BME280_humidity;BME280_pressure;Samples;Min_cycle;Max_cycle;Signal;HPM_P1;HPM_P2
2022/01/20 00:01:47;;;;;;;3.75;3.62;;;;;;;2.45;100.00;101855.69;4438056;32;20451;-77
2022/01/20 00:04:20;;;;;;;5.68;5.28;;;;;;;2.81;100.00;101919.59;4425265;32;20102;-76
2022/01/20 00:09:37;;;;;;;3.00;2.90;;;;;;;2.83;100.00;101930.84;4435886;32;20664;-75
2022/01/20 00:23:12;;;;;;;4.45;4.25;;;;;;;2.19;100.00;101831.47;4441120;32;20994;-73
2022/01/20 00:28:15;;;;;;;2.90;2.80;;;;;;;2.26;100.00;101866.00;4437811;32;20080;-75
2022/01/20 00:30:50;;;;;;;3.08;2.97;;;;;;;2.55;100.00;101933.41;4425531;32;20189;-75
2022/01/20 00:33:41;;;;;;;2.70;2.60;;;;;;;2.51;100.00;101934.28;4428318;32;20083;-75
2022/01/20 00:38:32;;;;;;;2.83;2.72;;;;;;;2.46;100.00;101946.34;4442664;32;20078;-75
2022/01/20 00:40:58;;;;;;;2.90;2.80;;;;;;;2.51;100.00;101955.00;4436461;32;20446;-75
2022/01/20 00:43:23;;;;;;;2.70;2.60;;;;;;;2.45;100.00;101952.41;4421040;32;20079;-75
2022/01/20 00:45:49;;;;;;;3.92;3.78;;;;;;;2.43;100.00;101948.09;4428031;32;20082;-76
2022/01/20 00:48:14;;;;;;;2.72;2.62;;;;;;;2.15;100.00;101916.94;4424224;32;20065;-75
2022/01/20 00:50:39;;;;;;;3.37;3.25;;;;;;;1.52;100.00;101842.53;4426961;32;20091;-75
2022/01/20 00:53:05;;;;;;;2.67;2.58;;;;;;;2.32;100.00;101950.66;4425405;32;20086;-75
2022/01/20 00:55:30;;;;;;;2.60;2.50;;;;;;;2.41;100.00;101958.44;4426040;32;20064;-74
2022/01/20 00:57:56;;;;;;;4.43;4.22;;;;;;;2.35;100.00;101961.87;4424798;32;20441;-75
2022/01/20 01:00:21;;;;;;;2.70;2.60;;;;;;;2.35;100.00;101966.22;4422553;32;20118;-76
2022/01/20 01:02:46;;;;;;;4.78;4.57;;;;;;;2.35;100.00;101959.28;4423043;32;20080;-74
2022/01/20 01:05:12;;;;;;;2.55;2.45;;;;;;;2.30;100.00;101961.00;4443114;32;20080;-76
2022/01/20 01:07:52;;;;;;;2.75;2.65;;;;;;;1.09;100.00;101756.19;4425250;32;20628;-75
2022/01/20 01:10:28;;;;;;;2.90;2.80;;;;;;;2.21;100.00;101966.16;4433344;32;20449;-76
2022/01/20 01:12:59;;;;;;;4.45;4.25;;;;;;;1.09;100.00;101793.25;4417390;32;20079;-75
2022/01/20 01:15:31;;;;;;;2.70;2.60;;;;;;;2.03;100.00;101945.41;4423837;32;20076;-74
2022/01/20 01:23:31;;;;;;;2.78;2.67;;;;;;;1.97;100.00;101957.44;4437340;32;20151;-74
2022/01/20 01:25:56;;;;;;;4.25;4.05;;;;;;;2.09;100.00;101972.16;4424325;32;20155;-74
2022/01/20 01:28:25;;;;;;;2.70;2.60;;;;;;;1.96;100.00;101940.16;4410688;32;20142;-74
2022/01/20 01:31:30;;;;;;;4.70;4.50;;;;;;;2.01;100.00;101931.59;4422566;32;20401;-74
2022/01/20 01:34:05;;;;;;;4.18;3.97;;;;;;;2.24;100.00;101966.16;4427916;32;20134;-74
2022/01/20 01:36:44;;;;;;;3.10;3.00;;;;;;;2.23;100.00;101972.22;4426753;32;21492;-74
2022/01/20 01:39:10;;;;;;;3.25;3.10;;;;;;;1.97;100.00;101939.34;4415591;32;20608;-75
2022/01/20 01:41:37;;;;;;;2.62;2.53;;;;;;;2.08;100.00;101954.03;4416155;32;20096;-74
2022/01/20 01:44:07;;;;;;;3.00;2.90;;;;;;;2.21;100.00;101968.75;4412108;32;20089;-73
2022/01/20 01:46:32;;;;;;;2.60;2.50;;;;;;;2.28;100.00;101967.03;4426257;32;20112;-74
2022/01/20 01:48:58;;;;;;;3.08;2.97;;;;;;;2.11;100.00;101951.47;4411704;32;20204;-74
2022/01/20 01:51:24;;;;;;;2.70;2.60;;;;;;;2.12;100.00;101941.09;4412358;32;20707;-74
2022/01/20 01:53:49;;;;;;;2.75;2.65;;;;;;;2.35;100.00;101989.53;4416149;32;20126;-74
2022/01/20 01:56:14;;;;;;;2.80;2.70;;;;;;;2.48;100.00;101985.22;4411762;32;20660;-73
2022/01/20 01:58:40;;;;;;;3.10;3.00;;;;;;;2.37;100.00;101964.47;4413544;32;20068;-74
2022/01/20 02:01:05;;;;;;;2.80;2.70;;;;;;;2.55;100.00;101981.78;4426100;32;20336;-74
2022/01/20 02:03:31;;;;;;;2.70;2.60;;;;;;;1.67;100.00;101820.19;4411531;32;20106;-74
2022/01/20 02:08:56;;;;;;;3.22;3.10;;;;;;;2.67;100.00;101976.63;4426167;32;20087;-74
2022/01/20 02:19:33;;;;;;;2.70;2.60;;;;;;;2.46;100.00;101917.00;4435648;32;20071;-75
2022/01/20 02:22:02;;;;;;;2.90;2.80;;;;;;;2.64;100.00;101929.09;4409621;32;20064;-74
2022/01/20 02:24:31;;;;;;;2.70;2.60;;;;;;;2.80;100.00;101957.59;4408583;32;20072;-74
2022/01/20 02:26:57;;;;;;;4.45;4.25;;;;;;;1.35;100.00;101738.19;4414579;32;20127;-74
2022/01/20 02:29:22;;;;;;;3.12;3.03;;;;;;;2.75;100.00;101959.34;4407282;32;20114;-74
2022/01/20 02:31:52;;;;;;;5.72;5.43;;;;;;;2.69;100.00;101958.50;4417821;32;20069;-75
2022/01/20 02:34:20;;;;;;;2.87;2.78;;;;;;;2.62;100.00;101970.56;4409003;32;20076;-75
2022/01/20 02:36:47;;;;;;;4.50;4.30;;;;;;;2.47;100.00;101944.66;4427839;32;20082;-74
2022/01/20 02:47:14;;;;;;;2.62;2.53;;;;;;;2.83;100.00;101968.84;4452278;32;20174;-74
2022/01/20 02:49:40;;;;;;;3.12;3.03;;;;;;;2.42;100.00;101903.16;4430165;32;20056;-74
2022/01/20 02:52:06;;;;;;;2.70;2.60;;;;;;;2.77;100.00;101962.81;4432099;32;20107;-74
2022/01/20 02:54:31;;;;;;;2.70;2.60;;;;;;;2.62;100.00;101939.47;4431949;32;20083;-74
2022/01/20 02:56:56;;;;;;;4.25;4.05;;;;;;;2.64;100.00;101948.09;4439145;32;20089;-74
2022/01/20 02:59:22;;;;;;;2.80;2.70;;;;;;;2.17;100.00;101879.81;4427475;32;20127;-73
2022/01/20 03:01:47;;;;;;;4.55;4.35;;;;;;;2.59;100.00;101955.03;4431949;32;20566;-73
2022/01/20 03:04:13;;;;;;;2.67;2.58;;;;;;;2.38;100.00;101927.34;4433941;32;20084;-75
2022/01/20 03:06:38;;;;;;;2.70;2.60;;;;;;;2.38;100.00;101932.53;4423586;32;20905;-73
2022/01/20 03:09:04;;;;;;;2.78;2.67;;;;;;;2.37;100.00;101920.44;4439571;32;20167;-74
2022/01/20 03:11:29;;;;;;;2.70;2.60;;;;;;;2.32;100.00;101901.44;4427139;32;20252;-75
2022/01/20 03:13:55;;;;;;;4.10;3.90;;;;;;;2.17;100.00;101879.81;4441331;32;20064;-77
2022/01/20 03:16:20;;;;;;;2.80;2.70;;;;;;;2.65;100.00;101952.44;4427916;32;20060;-74
2022/01/20 03:18:45;;;;;;;3.95;3.80;;;;;;;1.34;100.00;101783.00;4433584;32;20133;-75
2022/01/20 03:21:11;;;;;;;2.85;2.75;;;;;;;2.73;100.00;101953.31;4426968;32;20064;-74
2022/01/20 03:23:36;;;;;;;2.80;2.70;;;;;;;2.26;100.00;101866.00;4434035;32;20142;-74
2022/01/20 03:26:01;;;;;;;2.70;2.60;;;;;;;2.76;100.00;101955.87;4431230;32;20111;-75
2022/01/20 03:28:27;;;;;;;2.87;2.78;;;;;;;2.26;100.00;101870.34;4429605;32;20060;-74
2022/01/20 03:30:52;;;;;;;3.97;3.80;;;;;;;2.73;100.00;101957.62;4433315;32;20808;-75
2022/01/20 03:33:17;;;;;;;4.55;4.35;;;;;;;2.70;100.00;101948.09;4428167;32;20119;-75
2022/01/20 03:35:43;;;;;;;3.50;3.40;;;;;;;2.67;100.00;101942.94;4430774;32;20075;-74
2022/01/20 03:38:08;;;;;;;2.72;2.62;;;;;;;2.60;100.00;101943.78;4428482;32;20087;-74
2022/01/20 03:40:34;;;;;;;2.70;2.60;;;;;;;2.61;100.00;101950.69;4430988;32;20582;-75
2022/01/20 03:42:59;;;;;;;2.90;2.80;;;;;;;2.55;100.00;101954.16;4439418;32;20064;-74
2022/01/20 03:45:27;;;;;;;2.80;2.70;;;;;;;2.48;100.00;101948.94;4429205;32;20072;-75
2022/01/20 03:47:55;;;;;;;4.45;4.25;;;;;;;2.43;100.00;101959.31;4428098;32;20072;-75
2022/01/20 03:53:05;;;;;;;2.70;2.60;;;;;;;2.41;100.00;101958.44;4436589;32;21238;-74
2022/01/20 03:55:30;;;;;;;2.70;2.60;;;;;;;2.39;100.00;101934.25;4430099;32;20545;-75
2022/01/20 03:57:56;;;;;;;4.10;3.90;;;;;;;1.99;100.00;101884.97;4425131;32;20060;-75
2022/01/20 04:00:21;;;;;;;2.80;2.70;;;;;;;2.36;100.00;101924.75;4430685;32;20083;-74
2022/01/20 04:02:46;;;;;;;4.12;3.92;;;;;;;2.28;100.00;101923.00;4430218;32;20492;-74
2022/01/20 04:05:12;;;;;;;2.80;2.70;;;;;;;2.02;100.00;101876.34;4431201;32;20083;-75
2022/01/20 04:07:37;;;;;;;2.60;2.50;;;;;;;0.82;100.00;101675.09;4433478;32;20353;-75
2022/01/20 04:10:03;;;;;;;2.85;2.75;;;;;;;2.24;100.00;101929.91;4420905;32;20064;-74
2022/01/20 04:12:29;;;;;;;2.78;2.67;;;;;;;2.23;100.00;101933.38;4428999;32;20092;-75
2022/01/20 04:14:54;;;;;;;4.35;4.15;;;;;;;2.16;100.00;101916.06;4428602;32;20690;-75
2022/01/20 04:17:21;;;;;;;3.05;2.95;;;;;;;2.27;100.00;101942.00;4427995;32;20068;-74
2022/01/20 04:19:46;;;;;;;4.12;3.92;;;;;;;2.12;100.00;101935.06;4433183;32;20067;-74
2022/01/20 04:22:11;;;;;;;2.85;2.75;;;;;;;1.89;100.00;101880.63;4429883;32;20055;-77
2022/01/20 04:24:40;;;;;;;2.65;2.55;;;;;;;2.34;100.00;101948.91;4431270;32;20090;-76
2022/01/20 04:27:05;;;;;;;2.97;2.87;;;;;;;2.26;100.00;101930.75;4428542;32;20063;-74
2022/01/20 04:29:32;;;;;;;2.55;2.45;;;;;;;2.33;100.00;101942.88;4424963;32;20688;-77
2022/01/20 04:31:57;;;;;;;3.45;3.35;;;;;;;1.96;100.00;101883.22;4428963;32;20411;-75
2022/01/20 04:34:23;;;;;;;3.35;3.25;;;;;;;2.13;100.00;101913.50;4428230;32;20398;-77
2022/01/20 04:36:51;;;;;;;4.57;4.37;;;;;;;2.34;100.00;101941.16;4437068;32;20144;-75
2022/01/20 04:39:20;;;;;;;2.60;2.50;;;;;;;2.35;100.00;101943.75;4432957;32;20083;-75
2022/01/20 04:41:45;;;;;;;4.10;3.90;;;;;;;2.29;100.00;101928.19;4431081;32;20072;-75
2022/01/20 04:44:17;;;;;;;2.70;2.60;;;;;;;2.24;100.00;101936.81;4432944;32;20672;-73
2022/01/20 04:46:57;;;;;;;3.78;3.62;;;;;;;2.24;100.00;101935.06;4439841;32;20119;-73
2022/01/20 04:57:34;;;;;;;2.62;2.53;;;;;;;1.58;100.00;101855.53;4442949;32;20078;-75
2022/01/20 05:00:00;;;;;;;2.90;2.80;;;;;;;2.12;100.00;101945.41;4432198;32;20644;-75
2022/01/20 05:02:27;;;;;;;2.90;2.80;;;;;;;1.98;100.00;101935.91;4423534;32;20615;-73
2022/01/20 05:04:53;;;;;;;4.55;4.35;;;;;;;2.21;100.00;101955.81;4439519;31;20171;-74
2022/01/20 05:07:23;;;;;;;2.83;2.72;;;;;;;2.21;100.00;101945.44;4431890;31;20572;-75
2022/01/20 05:09:48;;;;;;;4.45;4.25;;;;;;;2.08;100.00;101933.31;4423877;32;20393;-74
2022/01/20 05:12:18;;;;;;;2.83;2.72;;;;;;;2.01;100.00;101922.09;4431707;32;20080;-74
2022/01/20 05:14:43;;;;;;;3.37;3.25;;;;;;;2.36;100.00;101963.59;4431997;32;20084;-74
2022/01/20 05:17:08;;;;;;;2.65;2.55;;;;;;;1.93;100.00;101867.69;4425855;32;20149;-74
2022/01/20 05:19:34;;;;;;;2.75;2.65;;;;;;;2.41;100.00;101963.62;4433007;32;20592;-75
2022/01/20 05:22:00;;;;;;;2.80;2.70;;;;;;;2.33;100.00;101932.53;4439912;32;20496;-75
2022/01/20 05:24:25;;;;;;;3.37;3.28;;;;;;;2.10;100.00;101909.16;4432005;32;20072;-71
2022/01/20 05:26:52;;;;;;;5.05;4.85;;;;;;;2.38;100.00;101941.16;4421750;32;20106;-73
2022/01/20 05:29:18;;;;;;;2.83;2.72;;;;;;;2.21;100.00;101932.50;4419624;32;20064;-74
2022/01/20 05:31:43;;;;;;;4.15;3.97;;;;;;;2.25;100.00;101948.91;4427479;32;20573;-74
2022/01/20 05:34:08;;;;;;;2.78;2.67;;;;;;;2.28;100.00;101959.28;4438069;32;20128;-73
2022/01/20 05:36:34;;;;;;;2.70;2.60;;;;;;;2.30;100.00;101962.72;4429181;32;20656;-74
2022/01/20 05:38:59;;;;;;;3.00;2.90;;;;;;;2.26;100.00;101964.44;4426979;32;20072;-73
2022/01/20 05:41:24;;;;;;;2.70;2.60;;;;;;;1.85;100.00;101897.03;4426630;32;20088;-72
2022/01/20 05:43:50;;;;;;;4.28;4.07;;;;;;;2.16;100.00;101947.16;4426378;32;20071;-73
2022/01/20 05:46:17;;;;;;;2.70;2.60;;;;;;;1.98;100.00;101907.41;4429837;32;20862;-72
2022/01/20 05:48:47;;;;;;;4.00;3.83;;;;;;;1.79;100.00;101892.69;4429786;32;20349;-74
2022/01/20 05:51:13;;;;;;;2.80;2.70;;;;;;;2.10;100.00;101926.41;4443330;32;20118;-73
2022/01/20 05:53:38;;;;;;;2.50;2.40;;;;;;;2.54;100.00;101980.91;4421768;32;20468;-73
2022/01/20 05:56:04;;;;;;;2.80;2.70;;;;;;;2.61;100.00;101989.56;4429568;32;20078;-74
2022/01/20 05:58:29;;;;;;;2.70;2.60;;;;;;;2.65;100.00;101946.41;4419609;32;20529;-72
2022/01/20 06:00:54;;;;;;;5.07;4.87;;;;;;;2.85;100.00;101999.09;4426430;32;20117;-76
2022/01/20 06:03:39;;;;;;;2.83;2.72;;;;;;;2.78;100.00;101987.00;4428381;32;20068;-73
2022/01/20 06:06:06;;;;;;;2.45;2.35;;;;;;;2.77;100.00;101974.91;4436221;32;20071;-74
2022/01/20 06:08:32;;;;;;;2.90;2.80;;;;;;;2.59;100.00;101955.03;4439253;32;20063;-73
2022/01/20 06:10:57;;;;;;;4.05;3.85;;;;;;;2.44;100.00;101942.88;4424796;32;20060;-74
2022/01/20 06:13:23;;;;;;;2.78;2.67;;;;;;;2.90;100.00;102038.84;4425363;32;20083;-73
2022/01/20 06:15:48;;;;;;;4.62;4.43;;;;;;;2.73;100.00;102002.53;4425808;32;20060;-73
2022/01/20 06:18:13;;;;;;;2.60;2.50;;;;;;;2.86;100.00;102039.72;4426676;32;20076;-75
2022/01/20 06:20:39;;;;;;;3.10;3.00;;;;;;;2.74;100.00;102035.38;4429281;31;20174;-72
2022/01/20 06:23:05;;;;;;;3.00;2.90;;;;;;;2.67;99.13;102032.78;4425713;31;20503;-75
2022/01/20 06:25:31;;;;;;;2.80;2.70;;;;;;;2.55;97.43;102028.44;4431170;31;20084;-73
2022/01/20 06:27:56;;;;;;;4.45;4.25;;;;;;;2.07;95.95;101960.09;4426234;32;20072;-72
2022/01/20 06:30:21;;;;;;;2.97;2.87;;;;;;;2.43;94.99;102031.00;4420113;32;20091;-73
2022/01/20 06:32:47;;;;;;;4.93;4.72;;;;;;;2.02;95.21;101983.34;4421652;32;20518;-74
2022/01/20 06:35:12;;;;;;;3.10;3.00;;;;;;;2.24;95.03;102024.88;4422175;32;20068;-73
2022/01/20 06:37:38;;;;;;;2.87;2.78;;;;;;;2.33;96.44;102063.78;4419746;32;20342;-73
2022/01/20 06:40:04;;;;;;;2.70;2.60;;;;;;;2.20;97.48;102024.00;4424947;32;20647;-72
2022/01/20 06:42:29;;;;;;;3.00;2.90;;;;;;;2.33;99.57;102067.22;4421385;32;20064;-74
2022/01/20 06:44:54;;;;;;;4.87;4.68;;;;;;;2.31;100.00;102056.00;4420795;32;20384;-74
2022/01/20 06:47:20;;;;;;;2.90;2.80;;;;;;;1.18;100.00;101882.91;4427334;32;20076;-73
2022/01/20 06:49:46;;;;;;;4.60;4.40;;;;;;;0.96;100.00;101874.16;4420938;32;20332;-74
2022/01/20 06:52:11;;;;;;;2.75;2.65;;;;;;;2.23;100.00;102073.22;4425249;32;20608;-73
2022/01/20 06:54:37;;;;;;;2.80;2.70;;;;;;;2.21;100.00;102066.31;4421993;32;20083;-72
2022/01/20 06:57:02;;;;;;;2.80;2.70;;;;;;;1.98;100.00;102041.16;4420082;32;20194;-72
2022/01/20 06:59:28;;;;;;;2.92;2.83;;;;;;;1.30;100.00;101919.16;4425781;32;20169;-73
2022/01/20 07:01:53;;;;;;;3.25;3.15;;;;;;;2.27;100.00;102089.66;4420166;32;20152;-73
2022/01/20 07:04:18;;;;;;;3.10;3.00;;;;;;;2.33;100.00;102111.25;4426601;32;20086;-73
2022/01/20 07:06:44;;;;;;;4.32;4.12;;;;;;;2.26;100.00;102119.84;4415440;32;20111;-75
2022/01/20 07:09:10;;;;;;;2.90;2.80;;;;;;;2.36;100.00;102119.03;4424832;32;20644;-73
2022/01/20 07:11:36;;;;;;;2.70;2.60;;;;;;;2.31;100.00;102120.75;4427210;32;20156;-73
2022/01/20 07:14:02;;;;;;;3.00;2.90;;;;;;;2.35;100.00;102125.09;4436760;32;20410;-73
2022/01/20 07:16:28;;;;;;;2.80;2.70;;;;;;;2.34;100.00;102141.47;4419203;32;21026;-74
2022/01/20 07:18:54;;;;;;;4.65;4.45;;;;;;;2.37;100.00;102135.47;4420934;32;20229;-74
2022/01/20 07:21:19;;;;;;;2.83;2.72;;;;;;;1.73;100.00;102035.00;4425679;32;20409;-74
2022/01/20 07:23:45;;;;;;;2.60;2.50;;;;;;;2.19;100.00;102108.59;4419126;32;20071;-75
2022/01/20 07:26:10;;;;;;;3.60;3.47;;;;;;;2.27;100.00;102131.97;4425617;32;20296;-73
2022/01/20 07:28:36;;;;;;;2.87;2.78;;;;;;;1.63;100.00;102015.09;4425457;32;20079;-73
2022/01/20 07:31:01;;;;;;;2.70;2.60;;;;;;;2.46;99.03;102168.31;4423970;32;20411;-73
2022/01/20 07:33:26;;;;;;;4.22;4.03;;;;;;;2.45;97.61;102162.28;4425529;32;20344;-73
2022/01/20 07:35:52;;;;;;;2.90;2.80;;;;;;;1.97;96.45;102086.03;4421947;32;20071;-74
2022/01/20 07:38:17;;;;;;;4.80;4.60;;;;;;;2.37;95.38;102146.69;4421168;32;20084;-73
2022/01/20 07:40:42;;;;;;;2.90;2.80;;;;;;;1.99;94.17;102087.78;4439690;32;20067;-73
2022/01/20 07:43:08;;;;;;;2.97;2.87;;;;;;;2.31;94.22;102154.44;4419865;32;20440;-74
2022/01/20 07:45:33;;;;;;;2.75;2.65;;;;;;;2.44;94.05;102180.41;4430713;32;20084;-73
2022/01/20 07:47:59;;;;;;;2.78;2.67;;;;;;;1.38;93.43;102026.16;4423545;32;20153;-74
2022/01/20 07:50:24;;;;;;;4.80;4.60;;;;;;;2.34;93.37;102159.63;4423425;32;20441;-74
2022/01/20 07:52:49;;;;;;;2.80;2.70;;;;;;;2.53;92.33;102188.22;4426343;32;20198;-73
2022/01/20 07:55:15;;;;;;;4.50;4.30;;;;;;;2.45;92.29;102182.16;4422389;32;20445;-73
2022/01/20 07:57:40;;;;;;;2.90;2.80;;;;;;;2.21;92.69;102163.00;4425528;32;20158;-73
2022/01/20 08:00:06;;;;;;;2.78;2.67;;;;;;;2.17;93.55;102169.03;4424498;32;20060;-73
2022/01/20 08:02:32;;;;;;;2.75;2.65;;;;;;;2.01;93.99;102180.16;4422900;32;22297;-73
2022/01/20 08:04:58;;;;;;;2.50;2.40;;;;;;;2.10;93.93;102204.34;4426239;32;20660;-72
2022/01/20 08:07:23;;;;;;;4.40;4.20;;;;;;;2.09;93.72;102200.06;4428311;32;20072;-74
2022/01/20 08:09:54;;;;;;;2.75;2.65;;;;;;;1.94;94.07;102180.06;4424686;32;20076;-72
2022/01/20 08:12:19;;;;;;;4.70;4.50;;;;;;;2.18;93.89;102214.78;4421256;32;20095;-72
2022/01/20 08:14:44;;;;;;;2.90;2.80;;;;;;;2.17;94.36;102203.56;4425175;32;20083;-74
2022/01/20 08:17:10;;;;;;;3.08;2.97;;;;;;;2.02;94.04;102181.88;4425737;32;20094;-73
2022/01/20 08:19:35;;;;;;;2.90;2.80;;;;;;;2.14;94.30;102200.06;4419886;32;20083;-73
2022/01/20 08:22:01;;;;;;;2.92;2.83;;;;;;;2.13;95.08;102213.91;4424517;32;20068;-73
2022/01/20 08:24:26;;;;;;;4.12;3.92;;;;;;;2.12;96.08;102206.97;4420298;32;20253;-72
2022/01/20 08:26:51;;;;;;;2.90;2.80;;;;;;;2.11;96.62;102206.09;4424453;32;20084;-73
2022/01/20 08:29:17;;;;;;;4.62;4.43;;;;;;;2.15;97.38;102215.63;4423207;32;20597;-72
2022/01/20 08:31:42;;;;;;;3.00;2.90;;;;;;;2.21;97.80;102222.59;4418513;32;20110;-72
2022/01/20 08:34:07;;;;;;;3.03;2.92;;;;;;;2.34;98.19;102231.28;4425189;32;20068;-71
2022/01/20 08:36:33;;;;;;;2.90;2.80;;;;;;;2.38;98.50;102239.09;4422042;32;20372;-71
2022/01/20 08:38:58;;;;;;;2.95;2.85;;;;;;;2.08;98.32;102187.09;4433399;32;20087;-73
2022/01/20 08:41:24;;;;;;;4.47;4.28;;;;;;;2.25;98.35;102226.94;4424793;32;20179;-71
2022/01/20 08:43:49;;;;;;;2.90;2.80;;;;;;;2.20;98.94;102241.56;4423708;32;20060;-71
2022/01/20 08:46:19;;;;;;;4.75;4.55;;;;;;;2.15;99.13;102246.72;4427983;32;20079;-73
2022/01/20 08:48:44;;;;;;;2.85;2.75;;;;;;;1.70;99.42;102200.59;4432799;32;20691;-71
2022/01/20 08:51:10;;;;;;;3.53;3.40;;;;;;;2.07;99.00;102263.91;4421912;32;20079;-72
2022/01/20 08:53:35;;;;;;;2.80;2.70;;;;;;;2.06;99.68;102258.72;4438952;32;20118;-70
2022/01/20 08:56:01;;;;;;;2.90;2.80;;;;;;;2.22;99.71;102242.44;4423179;32;20201;-72
2022/01/20 08:58:26;;;;;;;3.15;3.05;;;;;;;2.39;99.37;102255.53;4436116;32;20186;-74
2022/01/20 09:00:51;;;;;;;2.97;2.87;;;;;;;2.60;98.39;102262.53;4430236;32;20092;-72
2022/01/20 09:03:17;;;;;;;4.65;4.45;;;;;;;2.70;97.09;102242.75;4424067;32;20064;-73
2022/01/20 09:05:42;;;;;;;2.90;2.80;;;;;;;2.93;95.42;102250.66;4427960;32;20096;-72
2022/01/20 09:08:08;;;;;;;2.95;2.85;;;;;;;2.03;92.28;102124.06;4425626;32;20079;-72
2022/01/20 09:10:38;;;;;;;2.80;2.70;;;;;;;2.99;90.94;102268.81;4422863;32;22195;-71
2022/01/20 09:15:48;;;;;;;2.85;2.75;;;;;;;2.56;89.80;102217.59;4441421;32;20079;-71
2022/01/20 09:18:14;;;;;;;4.65;4.45;;;;;;;2.76;89.90;102250.53;4425340;32;20627;-72
2022/01/20 09:20:40;;;;;;;2.72;2.62;;;;;;;2.88;88.32;102279.12;4430743;32;20703;-70
2022/01/20 09:23:06;;;;;;;2.90;2.80;;;;;;;2.73;86.70;102271.28;4426797;32;20064;-72
2022/01/20 09:25:31;;;;;;;2.80;2.70;;;;;;;2.70;85.53;102281.63;4421692;32;20070;-72
2022/01/20 09:27:57;;;;;;;3.30;3.20;;;;;;;2.49;83.65;102266.81;4424351;32;20171;-71
2022/01/20 09:30:23;;;;;;;4.75;4.55;;;;;;;2.49;82.55;102283.22;4416007;32;20934;-70
2022/01/20 09:33:06;;;;;;;2.80;2.70;;;;;;;2.44;81.59;102279.72;4441065;32;20090;-71
2022/01/20 09:35:32;;;;;;;2.25;2.15;;;;;;;2.07;80.45;102217.28;4423130;32;20145;-72
2022/01/20 09:37:59;;;;;;;2.70;2.60;;;;;;;2.48;79.18;102289.25;4439750;32;20080;-71
2022/01/20 09:40:24;;;;;;;4.45;4.25;;;;;;;2.52;78.99;102292.72;4418474;32;21069;-70
2022/01/20 09:42:49;;;;;;;2.80;2.70;;;;;;;2.68;78.28;102289.38;4426710;32;20271;-71
2022/01/20 09:45:15;;;;;;;4.35;4.15;;;;;;;2.85;78.08;102296.41;4425084;32;20080;-71
2022/01/20 09:47:43;;;;;;;2.80;2.70;;;;;;;3.01;77.93;102285.25;4428007;32;20100;-70
2022/01/20 09:50:09;;;;;;;2.97;2.87;;;;;;;2.03;76.66;102139.59;4439981;32;20660;-72
2022/01/20 09:52:34;;;;;;;2.80;2.70;;;;;;;3.11;77.16;102320.75;4426160;32;20132;-72
2022/01/20 09:54:59;;;;;;;2.90;2.80;;;;;;;3.05;77.37;102312.06;4428505;32;20099;-73
2022/01/20 09:57:25;;;;;;;4.25;4.05;;;;;;;3.11;77.74;102319.88;4421340;32;20068;-74
2022/01/20 09:59:52;;;;;;;2.97;2.87;;;;;;;2.23;77.45;102194.97;4432246;32;20448;-75
2022/01/20 10:02:19;;;;;;;4.45;4.25;;;;;;;2.99;78.03;102305.13;4429070;32;20555;-74
2022/01/20 10:04:44;;;;;;;2.83;2.72;;;;;;;3.03;77.69;102312.06;4432383;32;20454;-75
2022/01/20 10:07:12;;;;;;;2.95;2.85;;;;;;;3.33;77.11;102345.06;4424473;32;20740;-74
2022/01/20 10:09:45;;;;;;;2.90;2.80;;;;;;;3.19;77.45;102313.00;4429377;32;20056;-73
2022/01/20 10:12:14;;;;;;;2.95;2.85;;;;;;;2.20;76.67;102171.63;4436859;32;20587;-74
2022/01/20 10:14:51;;;;;;;2.80;2.70;;;;;;;2.90;75.51;102294.69;4430804;32;20083;-73
2022/01/20 10:17:20;;;;;;;4.82;4.62;;;;;;;3.06;76.35;102342.34;4424308;32;20443;-75
2022/01/20 10:19:46;;;;;;;2.90;2.80;;;;;;;3.02;77.72;102344.03;4439623;32;20119;-75
2022/01/20 10:22:15;;;;;;;3.75;3.60;;;;;;;2.90;78.54;102347.41;4424907;32;20493;-74
2022/01/20 10:24:40;;;;;;;3.15;3.05;;;;;;;2.76;78.73;102326.59;4433795;32;20087;-74
2022/01/20 10:27:12;;;;;;;3.00;2.90;;;;;;;2.38;78.49;102233.91;4423971;32;20734;-76
2022/01/20 10:29:37;;;;;;;2.97;2.87;;;;;;;2.61;78.29;102300.59;4418899;32;20072;-73
2022/01/20 10:32:03;;;;;;;2.70;2.60;;;;;;;2.90;79.37;102351.75;4426882;32;20068;-75
2022/01/20 10:34:31;;;;;;;5.28;4.90;;;;;;;2.92;78.21;102375.97;4419060;32;20157;-76
2022/01/20 10:37:17;;;;;;;3.10;3.00;;;;;;;2.83;77.02;102334.41;4441637;32;20538;-75
2022/01/20 10:39:45;;;;;;;2.80;2.70;;;;;;;2.40;77.27;102257.25;4428001;32;20379;-76
2022/01/20 10:42:13;;;;;;;3.12;3.03;;;;;;;3.02;77.10;102369.09;4418218;32;20071;-74
2022/01/20 10:44:45;;;;;;;3.25;3.15;;;;;;;2.83;78.52;102374.19;4422987;32;20100;-75
2022/01/20 10:47:12;;;;;;;3.15;3.05;;;;;;;2.60;78.55;102302.28;4436323;32;20134;-74
2022/01/20 10:49:38;;;;;;;2.90;2.80;;;;;;;3.08;78.77;102374.34;4437496;32;20199;-75
2022/01/20 10:52:05;;;;;;;2.97;2.87;;;;;;;3.07;78.94;102373.47;4425931;32;20076;-73
2022/01/20 10:54:58;;;;;;;3.10;3.00;;;;;;;3.06;78.07;102386.41;4423068;32;20344;-73
2022/01/20 10:57:27;;;;;;;4.75;4.55;;;;;;;3.15;78.10;102381.31;4445667;32;20688;-74
2022/01/20 10:59:55;;;;;;;2.90;2.80;;;;;;;2.74;78.18;102319.66;4427399;32;20565;-75
2022/01/20 11:02:22;;;;;;;4.68;4.47;;;;;;;3.16;78.66;102386.47;4421941;32;20632;-73
2022/01/20 11:04:48;;;;;;;2.95;2.85;;;;;;;2.62;78.93;102298.84;4425923;32;20076;-73
2022/01/20 11:07:13;;;;;;;4.05;3.87;;;;;;;3.12;78.64;102379.53;4420006;32;20899;-74
2022/01/20 11:09:45;;;;;;;2.90;2.80;;;;;;;3.11;78.90;102361.41;4442122;32;20075;-74
2022/01/20 11:12:12;;;;;;;3.90;3.72;;;;;;;2.90;79.81;102362.97;4417647;32;20125;-74
2022/01/20 11:14:40;;;;;;;3.00;2.90;;;;;;;2.86;79.78;102356.03;4420611;32;20079;-74
2022/01/20 11:17:06;;;;;;;3.20;3.10;;;;;;;2.96;81.20;102372.53;4428501;31;21702;-73
2022/01/20 11:19:36;;;;;;;2.90;2.80;;;;;;;3.02;80.54;102369.09;4420347;31;20071;-73
2022/01/20 11:22:09;;;;;;;2.80;2.70;;;;;;;2.90;80.91;102350.00;4432730;31;20356;-73
2022/01/20 11:24:34;;;;;;;2.90;2.80;;;;;;;2.40;81.59;102260.69;4424417;32;20162;-74
2022/01/20 11:27:00;;;;;;;2.80;2.70;;;;;;;2.79;81.88;102339.59;4422455;32;20099;-74
2022/01/20 11:29:45;;;;;;;4.45;4.25;;;;;;;2.86;81.20;102353.44;4419236;32;20075;-73
2022/01/20 11:32:24;;;;;;;4.57;4.32;;;;;;;3.05;80.18;102350.94;4438545;32;20076;-73
2022/01/20 11:35:09;;;;;;;2.85;2.75;;;;;;;2.88;80.13;102343.94;4423253;32;20076;-73
2022/01/20 11:37:40;;;;;;;2.85;2.75;;;;;;;2.63;79.81;102336.88;4429231;32;20072;-75
2022/01/20 11:40:16;;;;;;;3.00;2.90;;;;;;;2.20;80.40;102272.62;4424888;32;20064;-75
2022/01/20 11:42:42;;;;;;;2.92;2.83;;;;;;;2.58;81.66;102357.56;4419563;32;20084;-75
2022/01/20 11:45:28;;;;;;;2.85;2.75;;;;;;;2.49;82.03;102353.19;4422858;32;20068;-75
2022/01/20 11:47:54;;;;;;;2.75;2.65;;;;;;;2.64;82.12;102336.00;4439154;32;20071;-74
2022/01/20 11:50:21;;;;;;;4.53;4.32;;;;;;;2.61;80.16;102282.44;4432468;32;20507;-76
2022/01/20 11:52:46;;;;;;;3.10;3.00;;;;;;;2.60;78.91;102250.44;4425751;32;20071;-73
2022/01/20 11:55:15;;;;;;;4.32;4.12;;;;;;;3.34;79.62;102361.50;4421375;32;20057;-73
2022/01/20 11:57:41;;;;;;;3.00;2.90;;;;;;;3.66;79.22;102358.16;4426790;32;20083;-74
2022/01/20 12:00:19;;;;;;;2.80;2.70;;;;;;;3.76;78.15;102357.31;4429000;32;20128;-73
2022/01/20 12:02:44;;;;;;;3.00;2.90;;;;;;;3.84;77.87;102353.00;4424434;32;20106;-73
2022/01/20 12:05:27;;;;;;;3.37;3.25;;;;;;;3.16;77.34;102224.78;4426034;32;20502;-73
2022/01/20 12:08:08;;;;;;;3.08;2.97;;;;;;;3.90;77.83;102331.37;4428261;32;20110;-72
2022/01/20 12:10:33;;;;;;;3.00;2.90;;;;;;;4.20;77.31;102333.16;4436440;32;20124;-74
2022/01/20 12:13:09;;;;;;;3.10;3.00;;;;;;;4.07;76.41;102305.41;4420124;32;20069;-71
2022/01/20 12:15:35;;;;;;;2.90;2.80;;;;;;;4.32;75.21;102327.09;4422855;32;20068;-73
2022/01/20 12:18:00;;;;;;;3.10;3.00;;;;;;;4.19;75.98;102314.09;4429427;32;20210;-73
2022/01/20 12:20:26;;;;;;;4.07;3.87;;;;;;;4.51;74.16;102322.75;4422235;32;20067;-72
2022/01/20 12:22:52;;;;;;;2.90;2.80;;;;;;;4.33;73.87;102318.41;4423598;32;20149;-74
2022/01/20 12:25:22;;;;;;;4.62;4.43;;;;;;;4.09;73.75;102309.78;4425120;32;20681;-73
2022/01/20 12:27:47;;;;;;;2.90;2.80;;;;;;;4.18;74.21;102311.50;4419917;32;20198;-72